Impacts TAF Board INFO
FOR SITUATIONAL AWARENESS. NOT TO BE USED FOR FLIGHT PLANNING PURPOSES.
IDs:

KBWI - Baltimore-Washington, MD, US

Issued at 2334 UTC 14 Dec 2017
Updated at 0245 UTC 15 Dec 2017
Potential Impact None Slight Moderate High
Time0154Z 15/03Z 15/04Z 15/05Z 15/06Z 15/07Z 15/08Z 15/09Z 15/10Z 15/11Z 15/12Z 15/13Z 15/14Z 15/15Z>>
Type OBS PRVL PRVL PRVL PRVL PRVL PRVL PRVL PRVL PRVL PRVL PRVL PRVL PRVL
VIS 10 >6 >6 >6 >6 >6 >6 >6 >6 >6 >6 >6 >6 >6
CIG 210 150 150 150 150 150 150 45 45 45 45 45 45 45
Cover BKN BKN BKN BKN BKN BKN BKN BKN BKN BKN BKN BKN BKN BKN
FltCat VFR VFR VFR VFR VFR VFR VFR VFR VFR VFR VFR VFR VFR VFR
WX -- -- -- -- -- -- -- -- -- -- -- -- -- --
WDir 330 310 310 310 310 310 310 VRB VRB VRB VRB VRB VRB VRB
WSpd 7 7 7 7 7 7 7 3 3 3 3 3 3 3
WGst -- -- -- -- -- -- -- -- -- -- -- -- -- --

Raw TAF
KBWI 142334Z 1500/1606 31007KT P6SM BKN150
  FM150900 VRB03KT P6SM BKN045
  FM151600 VRB03KT P6SM OVC030
  FM151800 VRB04KT P6SM OVC015
  FM152200 VRB03KT P6SM BKN035
  FM160000 VRB03KT P6SM SCT250


Raw METAR
KBWI 150154Z 33007KT 10SM SCT160 BKN210 M01/M10 A3008 RMK AO2 SLP188 T10061100
KBWI 150054Z 31005KT 10SM SCT160 BKN210 M01/M10 A3007 RMK AO2 SLP185 T10061100
KBWI 142354Z 31003KT 10SM FEW055 FEW100 BKN210 00/M09 A3005 RMK AO2 SLP177 T00001094 10039 21006 53034

METAR Board
Radar Display
Forecast Discussion

FOR SITUATIONAL AWARENESS. NOT TO BE USED FOR FLIGHT PLANNING PURPOSES.